sensor_id;sensor_type;location;lat;lon;timestamp;pressure;altitude;pressure_sealevel;temperature;humidity
82035;BME280;71599;49.892;18.914;2023-08-31T00:02:25;97959.75;;;14.73;77.62
82035;BME280;71599;49.892;18.914;2023-08-31T00:07:27;97955.78;;;14.77;77.37
82035;BME280;71599;49.892;18.914;2023-08-31T00:12:28;97942.47;;;14.76;77.29
82035;BME280;71599;49.892;18.914;2023-08-31T00:17:29;97953.41;;;14.79;77.39
82035;BME280;71599;49.892;18.914;2023-08-31T00:22:32;97959.25;;;14.85;77.47
82035;BME280;71599;49.892;18.914;2023-08-31T00:27:32;97955.72;;;14.84;77.26
82035;BME280;71599;49.892;18.914;2023-08-31T00:32:33;97962.06;;;14.81;77.43
82035;BME280;71599;49.892;18.914;2023-08-31T00:37:36;97942.41;;;14.83;77.62
82035;BME280;71599;49.892;18.914;2023-08-31T00:42:37;97946.00;;;14.76;77.23
82035;BME280;71599;49.892;18.914;2023-08-31T00:47:38;97962.06;;;14.78;77.62
82035;BME280;71599;49.892;18.914;2023-08-31T00:52:40;97951.91;;;14.75;77.84
82035;BME280;71599;49.892;18.914;2023-08-31T00:57:42;97948.31;;;14.81;77.67
82035;BME280;71599;49.892;18.914;2023-08-31T01:02:51;97949.44;;;14.84;77.48
82035;BME280;71599;49.892;18.914;2023-08-31T01:07:59;97954.94;;;14.84;77.06
82035;BME280;71599;49.892;18.914;2023-08-31T01:13:07;97971.16;;;14.75;77.32
82035;BME280;71599;49.892;18.914;2023-08-31T01:18:14;97975.47;;;14.72;77.47
82035;BME280;71599;49.892;18.914;2023-08-31T01:23:19;97972.38;;;14.67;77.60
82035;BME280;71599;49.892;18.914;2023-08-31T01:28:22;97977.53;;;14.65;77.66
82035;BME280;71599;49.892;18.914;2023-08-31T01:33:23;97987.38;;;14.62;77.63
82035;BME280;71599;49.892;18.914;2023-08-31T01:38:27;97983.44;;;14.59;77.90
82035;BME280;71599;49.892;18.914;2023-08-31T01:43:31;97985.81;;;14.54;77.75
82035;BME280;71599;49.892;18.914;2023-08-31T01:48:38;97988.16;;;14.55;77.96
82035;BME280;71599;49.892;18.914;2023-08-31T01:53:39;97994.50;;;14.49;78.13
82035;BME280;71599;49.892;18.914;2023-08-31T01:58:42;97985.88;;;14.47;77.95
82035;BME280;71599;49.892;18.914;2023-08-31T02:03:42;97986.66;;;14.47;77.99
82035;BME280;71599;49.892;18.914;2023-08-31T02:08:43;97996.09;;;14.46;77.98
82035;BME280;71599;49.892;18.914;2023-08-31T02:13:46;97996.88;;;14.47;78.11
82035;BME280;71599;49.892;18.914;2023-08-31T02:18:47;97991.78;;;14.45;78.33
82035;BME280;71599;49.892;18.914;2023-08-31T02:23:48;97985.09;;;14.46;77.44
82035;BME280;71599;49.892;18.914;2023-08-31T02:28:50;98000.03;;;14.45;77.79
82035;BME280;71599;49.892;18.914;2023-08-31T02:33:51;98003.16;;;14.47;77.83
82035;BME280;71599;49.892;18.914;2023-08-31T02:38:52;98002.34;;;14.47;77.72
82035;BME280;71599;49.892;18.914;2023-08-31T02:43:54;98001.66;;;14.39;78.12
82035;BME280;71599;49.892;18.914;2023-08-31T02:48:55;98008.69;;;14.44;77.89
82035;BME280;71599;49.892;18.914;2023-08-31T02:53:56;98001.66;;;14.39;78.30
82035;BME280;71599;49.892;18.914;2023-08-31T02:58:58;97990.63;;;14.43;78.30
82035;BME280;71599;49.892;18.914;2023-08-31T03:03:59;97998.47;;;14.44;78.41
82035;BME280;71599;49.892;18.914;2023-08-31T03:09:00;98007.91;;;14.43;78.38
82035;BME280;71599;49.892;18.914;2023-08-31T03:14:03;98006.38;;;14.39;78.67
82035;BME280;71599;49.892;18.914;2023-08-31T03:19:04;98013.47;;;14.29;79.33
82035;BME280;71599;49.892;18.914;2023-08-31T03:24:06;98018.97;;;14.29;79.12
82035;BME280;71599;49.892;18.914;2023-08-31T03:29:08;98026.06;;;14.23;79.15
82035;BME280;71599;49.892;18.914;2023-08-31T03:34:09;98024.94;;;14.20;79.32
82035;BME280;71599;49.892;18.914;2023-08-31T03:39:10;98025.28;;;14.22;79.32
82035;BME280;71599;49.892;18.914;2023-08-31T03:44:12;98032.75;;;14.26;79.57
82035;BME280;71599;49.892;18.914;2023-08-31T03:49:13;98038.63;;;14.24;79.58
82035;BME280;71599;49.892;18.914;2023-08-31T03:54:14;98045.75;;;14.18;79.54
82035;BME280;71599;49.892;18.914;2023-08-31T03:59:16;98043.84;;;14.08;79.78
82035;BME280;71599;49.892;18.914;2023-08-31T04:04:17;98034.41;;;14.09;79.70
82035;BME280;71599;49.892;18.914;2023-08-31T04:09:18;98035.19;;;14.09;79.55
82035;BME280;71599;49.892;18.914;2023-08-31T04:14:21;98041.03;;;14.18;79.37
82035;BME280;71599;49.892;18.914;2023-08-31T04:19:22;98044.13;;;14.24;79.39
82035;BME280;71599;49.892;18.914;2023-08-31T04:24:23;98050.41;;;14.28;79.21
82035;BME280;71599;49.892;18.914;2023-08-31T04:29:25;98049.59;;;14.31;79.17
82035;BME280;71599;49.892;18.914;2023-08-31T04:34:26;98050.81;;;14.23;78.88
82035;BME280;71599;49.892;18.914;2023-08-31T04:39:27;98046.88;;;14.24;78.93
82035;BME280;71599;49.892;18.914;2023-08-31T04:44:29;98050.81;;;14.23;78.76
82035;BME280;71599;49.892;18.914;2023-08-31T04:49:30;98045.28;;;14.34;78.95
82035;BME280;71599;49.892;18.914;2023-08-31T04:54:31;98045.94;;;14.52;78.25
82035;BME280;71599;49.892;18.914;2023-08-31T04:59:34;98032.78;;;14.81;77.12
82035;BME280;71599;49.892;18.914;2023-08-31T05:04:34;98045.84;;;15.18;76.23
82035;BME280;71599;49.892;18.914;2023-08-31T05:09:35;98045.22;;;15.40;75.63
82035;BME280;71599;49.892;18.914;2023-08-31T05:14:38;98057.84;;;15.38;74.77
82035;BME280;71599;49.892;18.914;2023-08-31T05:19:39;98062.69;;;15.68;73.86
82035;BME280;71599;49.892;18.914;2023-08-31T05:24:39;98066.56;;;15.70;73.24
82035;BME280;71599;49.892;18.914;2023-08-31T05:29:42;98073.72;;;15.64;73.45
82035;BME280;71599;49.892;18.914;2023-08-31T05:34:43;98085.50;;;15.65;73.72
82035;BME280;71599;49.892;18.914;2023-08-31T05:39:47;98085.19;;;15.56;73.31
82035;BME280;71599;49.892;18.914;2023-08-31T05:44:50;98084.66;;;15.71;73.47
82035;BME280;71599;49.892;18.914;2023-08-31T05:49:51;98077.56;;;15.70;73.73
82035;BME280;71599;49.892;18.914;2023-08-31T05:54:52;98077.91;;;15.76;73.70
82035;BME280;71599;49.892;18.914;2023-08-31T05:59:54;98082.16;;;15.84;73.75
82035;BME280;71599;49.892;18.914;2023-08-31T06:04:55;98092.00;;;15.81;73.14
82035;BME280;71599;49.892;18.914;2023-08-31T06:09:56;98090.91;;;15.75;73.29
82035;BME280;71599;49.892;18.914;2023-08-31T06:14:58;98095.03;;;15.94;73.54
82035;BME280;71599;49.892;18.914;2023-08-31T06:19:59;98103.84;;;16.12;73.05
82035;BME280;71599;49.892;18.914;2023-08-31T06:25:00;98100.47;;;16.32;71.93
82035;BME280;71599;49.892;18.914;2023-08-31T06:30:04;98106.00;;;16.32;72.19
82035;BME280;71599;49.892;18.914;2023-08-31T06:35:06;98109.81;;;16.41;72.01
82035;BME280;71599;49.892;18.914;2023-08-31T06:40:08;98115.19;;;16.52;71.19
82035;BME280;71599;49.892;18.914;2023-08-31T06:45:11;98108.56;;;16.46;70.85
82035;BME280;71599;49.892;18.914;2023-08-31T06:50:12;98125.84;;;16.50;70.71
82035;BME280;71599;49.892;18.914;2023-08-31T06:55:13;98128.34;;;16.71;69.72
82035;BME280;71599;49.892;18.914;2023-08-31T07:00:16;98119.41;;;16.90;67.51
82035;BME280;71599;49.892;18.914;2023-08-31T07:05:17;98121.00;;;17.15;68.27
82035;BME280;71599;49.892;18.914;2023-08-31T07:10:18;98135.03;;;17.24;67.57
82035;BME280;71599;49.892;18.914;2023-08-31T07:15:21;98122.50;;;17.19;66.45
82035;BME280;71599;49.892;18.914;2023-08-31T07:20:22;98138.66;;;17.21;66.51
82035;BME280;71599;49.892;18.914;2023-08-31T07:25:22;98136.78;;;17.37;66.89
82035;BME280;71599;49.892;18.914;2023-08-31T07:30:25;98142.53;;;17.50;65.81
82035;BME280;71599;49.892;18.914;2023-08-31T07:35:26;98132.66;;;17.72;63.70
82035;BME280;71599;49.892;18.914;2023-08-31T07:40:27;98123.06;;;18.00;64.42
82035;BME280;71599;49.892;18.914;2023-08-31T07:45:29;98151.53;;;18.76;60.23
82035;BME280;71599;49.892;18.914;2023-08-31T07:50:30;98136.56;;;19.42;60.62
82035;BME280;71599;49.892;18.914;2023-08-31T07:55:32;98163.25;;;19.52;59.19
82035;BME280;71599;49.892;18.914;2023-08-31T08:00:34;98158.09;;;19.67;58.76
82035;BME280;71599;49.892;18.914;2023-08-31T08:05:35;98159.38;;;19.78;57.28
82035;BME280;71599;49.892;18.914;2023-08-31T08:10:36;98158.75;;;20.03;57.73
82035;BME280;71599;49.892;18.914;2023-08-31T08:15:39;98171.31;;;20.37;57.40
82035;BME280;71599;49.892;18.914;2023-08-31T08:20:40;98169.44;;;20.46;56.63
82035;BME280;71599;49.892;18.914;2023-08-31T08:25:41;98173.03;;;20.59;58.60
82035;BME280;71599;49.892;18.914;2023-08-31T08:30:43;98186.25;;;20.26;54.85
82035;BME280;71599;49.892;18.914;2023-08-31T08:35:44;98183.16;;;20.66;54.53
82035;BME280;71599;49.892;18.914;2023-08-31T08:40:45;98180.47;;;21.17;56.03
82035;BME280;71599;49.892;18.914;2023-08-31T08:45:48;98184.00;;;20.79;53.96
82035;BME280;71599;49.892;18.914;2023-08-31T08:50:51;98182.25;;;21.11;54.09
82035;BME280;71599;49.892;18.914;2023-08-31T08:55:54;98186.34;;;21.44;51.73
82035;BME280;71599;49.892;18.914;2023-08-31T09:00:56;98185.91;;;21.58;53.73
82035;BME280;71599;49.892;18.914;2023-08-31T09:05:59;98190.56;;;21.61;54.13
82035;BME280;71599;49.892;18.914;2023-08-31T09:11:00;98190.28;;;21.94;51.56
82035;BME280;71599;49.892;18.914;2023-08-31T09:16:03;98195.25;;;21.99;50.42
82035;BME280;71599;49.892;18.914;2023-08-31T09:21:04;98206.00;;;22.22;50.02
82035;BME280;71599;49.892;18.914;2023-08-31T09:26:05;98203.91;;;22.26;52.88
82035;BME280;71599;49.892;18.914;2023-08-31T09:31:08;98211.78;;;22.71;50.32
82035;BME280;71599;49.892;18.914;2023-08-31T09:36:09;98206.59;;;23.04;48.10
82035;BME280;71599;49.892;18.914;2023-08-31T09:41:11;98211.03;;;23.23;49.63
82035;BME280;71599;49.892;18.914;2023-08-31T09:46:14;98211.06;;;23.32;47.98
82035;BME280;71599;49.892;18.914;2023-08-31T09:51:15;98216.19;;;23.34;49.88
82035;BME280;71599;49.892;18.914;2023-08-31T09:56:20;98216.53;;;23.45;47.37
82035;BME280;71599;49.892;18.914;2023-08-31T10:01:23;98222.38;;;23.78;44.14
82035;BME280;71599;49.892;18.914;2023-08-31T10:06:24;98213.88;;;23.41;48.18
82035;BME280;71599;49.892;18.914;2023-08-31T10:11:26;98230.78;;;23.47;47.92
82035;BME280;71599;49.892;18.914;2023-08-31T10:16:29;98231.50;;;23.60;48.77
82035;BME280;71599;49.892;18.914;2023-08-31T10:21:31;98221.31;;;23.04;48.23
82035;BME280;71599;49.892;18.914;2023-08-31T10:26:33;98219.13;;;23.39;49.20
82035;BME280;71599;49.892;18.914;2023-08-31T10:31:35;98232.00;;;23.77;46.17
82035;BME280;71599;49.892;18.914;2023-08-31T10:36:38;98235.31;;;24.12;47.28
82035;BME280;71599;49.892;18.914;2023-08-31T10:41:39;98228.25;;;23.71;47.09
82035;BME280;71599;49.892;18.914;2023-08-31T10:46:43;98227.41;;;24.19;47.09
82035;BME280;71599;49.892;18.914;2023-08-31T10:51:46;98238.47;;;23.65;43.51
82035;BME280;71599;49.892;18.914;2023-08-31T10:56:54;98226.09;;;23.75;43.93
82035;BME280;71599;49.892;18.914;2023-08-31T11:01:58;98233.41;;;23.81;44.98
82035;BME280;71599;49.892;18.914;2023-08-31T11:07:13;98219.81;;;23.53;42.91
82035;BME280;71599;49.892;18.914;2023-08-31T11:12:14;98228.31;;;24.07;45.14
82035;BME280;71599;49.892;18.914;2023-08-31T11:17:17;98239.47;;;23.89;45.49
82035;BME280;71599;49.892;18.914;2023-08-31T11:22:18;98237.28;;;23.84;42.06
82035;BME280;71599;49.892;18.914;2023-08-31T11:27:20;98232.78;;;23.77;44.07
82035;BME280;71599;49.892;18.914;2023-08-31T11:32:24;98236.19;;;23.81;41.78
82035;BME280;71599;49.892;18.914;2023-08-31T11:37:25;98234.47;;;23.75;44.74
82035;BME280;71599;49.892;18.914;2023-08-31T11:42:26;98233.84;;;23.80;43.01
82035;BME280;71599;49.892;18.914;2023-08-31T11:47:29;98227.22;;;23.96;44.03
82035;BME280;71599;49.892;18.914;2023-08-31T11:52:30;98215.44;;;23.92;44.92
82035;BME280;71599;49.892;18.914;2023-08-31T11:57:31;98216.19;;;23.83;43.43
82035;BME280;71599;49.892;18.914;2023-08-31T12:02:36;98216.41;;;23.18;42.74
82035;BME280;71599;49.892;18.914;2023-08-31T12:07:39;98212.44;;;23.28;42.42
82035;BME280;71599;49.892;18.914;2023-08-31T12:12:40;98209.94;;;23.61;41.82
82035;BME280;71599;49.892;18.914;2023-08-31T12:17:42;98215.22;;;23.59;41.83
82035;BME280;71599;49.892;18.914;2023-08-31T12:22:43;98208.25;;;23.32;43.30
82035;BME280;71599;49.892;18.914;2023-08-31T12:27:44;98216.44;;;22.52;44.22
82035;BME280;71599;49.892;18.914;2023-08-31T12:32:47;98202.00;;;22.88;43.64
82035;BME280;71599;49.892;18.914;2023-08-31T12:37:48;98187.72;;;23.48;43.56
82035;BME280;71599;49.892;18.914;2023-08-31T12:42:49;98209.75;;;23.55;42.43
82035;BME280;71599;49.892;18.914;2023-08-31T12:47:51;98220.47;;;23.26;43.92
82035;BME280;71599;49.892;18.914;2023-08-31T12:52:52;98225.59;;;22.96;44.03
82035;BME280;71599;49.892;18.914;2023-08-31T12:57:53;98239.31;;;22.47;46.66
82035;BME280;71599;49.892;18.914;2023-08-31T13:02:55;98254.69;;;22.05;46.85
82035;BME280;71599;49.892;18.914;2023-08-31T13:07:56;98297.22;;;21.42;48.85
82035;BME280;71599;49.892;18.914;2023-08-31T13:12:57;98336.59;;;19.37;60.26
82035;BME280;71599;49.892;18.914;2023-08-31T13:18:00;98337.09;;;18.49;61.92
82035;BME280;71599;49.892;18.914;2023-08-31T13:23:01;98325.00;;;18.16;64.10
82035;BME280;71599;49.892;18.914;2023-08-31T13:28:02;98348.13;;;18.03;65.08
82035;BME280;71599;49.892;18.914;2023-08-31T13:33:06;98349.09;;;17.93;63.68
82035;BME280;71599;49.892;18.914;2023-08-31T13:38:07;98355.31;;;17.73;66.83
82035;BME280;71599;49.892;18.914;2023-08-31T13:43:08;98353.13;;;17.61;65.03
82035;BME280;71599;49.892;18.914;2023-08-31T13:48:10;98352.13;;;17.44;66.67
82035;BME280;71599;49.892;18.914;2023-08-31T13:53:11;98358.72;;;17.24;66.54
82035;BME280;71599;49.892;18.914;2023-08-31T13:58:12;98354.72;;;16.94;67.75
82035;BME280;71599;49.892;18.914;2023-08-31T14:03:15;98342.91;;;16.94;69.65
82035;BME280;71599;49.892;18.914;2023-08-31T14:08:16;98344.16;;;17.20;68.19
82035;BME280;71599;49.892;18.914;2023-08-31T14:13:17;98334.16;;;17.33;68.52
82035;BME280;71599;49.892;18.914;2023-08-31T14:18:19;98338.34;;;17.71;66.29
82035;BME280;71599;49.892;18.914;2023-08-31T14:23:21;98338.25;;;17.78;66.94
82035;BME280;71599;49.892;18.914;2023-08-31T14:28:22;98338.47;;;18.14;66.67
82035;BME280;71599;49.892;18.914;2023-08-31T14:33:24;98332.16;;;18.60;63.78
82035;BME280;71599;49.892;18.914;2023-08-31T14:38:25;98334.78;;;18.48;62.93
82035;BME280;71599;49.892;18.914;2023-08-31T14:43:26;98337.81;;;18.30;61.30
82035;BME280;71599;49.892;18.914;2023-08-31T14:48:29;98341.09;;;18.68;62.14
82035;BME280;71599;49.892;18.914;2023-08-31T14:53:30;98332.81;;;18.88;60.16
82035;BME280;71599;49.892;18.914;2023-08-31T14:58:31;98344.19;;;18.74;58.47
82035;BME280;71599;49.892;18.914;2023-08-31T15:03:33;98344.88;;;18.78;58.64
82035;BME280;71599;49.892;18.914;2023-08-31T15:08:37;98348.63;;;18.87;59.60
82035;BME280;71599;49.892;18.914;2023-08-31T15:13:38;98357.06;;;18.80;57.37
82035;BME280;71599;49.892;18.914;2023-08-31T15:18:40;98358.28;;;18.59;57.88
82035;BME280;71599;49.892;18.914;2023-08-31T15:23:41;98367.81;;;18.78;59.22
82035;BME280;71599;49.892;18.914;2023-08-31T15:28:42;98362.56;;;18.84;58.82
82035;BME280;71599;49.892;18.914;2023-08-31T15:33:44;98369.22;;;18.86;57.12
82035;BME280;71599;49.892;18.914;2023-08-31T15:38:45;98379.19;;;18.84;57.96
82035;BME280;71599;49.892;18.914;2023-08-31T15:43:46;98372.16;;;18.79;57.12
82035;BME280;71599;49.892;18.914;2023-08-31T15:48:49;98370.28;;;18.92;57.90
82035;BME280;71599;49.892;18.914;2023-08-31T15:53:50;98376.91;;;18.79;56.60
82035;BME280;71599;49.892;18.914;2023-08-31T15:58:51;98378.53;;;18.76;57.38
82035;BME280;71599;49.892;18.914;2023-08-31T16:03:53;98373.75;;;18.77;57.42
82035;BME280;71599;49.892;18.914;2023-08-31T16:08:54;98377.16;;;18.64;57.41
82035;BME280;71599;49.892;18.914;2023-08-31T16:13:55;98375.59;;;18.63;58.01
82035;BME280;71599;49.892;18.914;2023-08-31T16:19:00;98384.38;;;18.58;58.29
82035;BME280;71599;49.892;18.914;2023-08-31T16:24:01;98380.41;;;18.59;57.89
82035;BME280;71599;49.892;18.914;2023-08-31T16:29:02;98380.13;;;18.54;57.92
82035;BME280;71599;49.892;18.914;2023-08-31T16:34:04;98386.97;;;18.46;58.26
82035;BME280;71599;49.892;18.914;2023-08-31T16:39:05;98386.25;;;18.42;58.48
82035;BME280;71599;49.892;18.914;2023-08-31T16:44:06;98390.03;;;18.51;58.69
82035;BME280;71599;49.892;18.914;2023-08-31T16:49:09;98388.94;;;18.45;58.53
82035;BME280;71599;49.892;18.914;2023-08-31T16:54:10;98391.16;;;18.31;58.48
82035;BME280;71599;49.892;18.914;2023-08-31T16:59:11;98389.50;;;18.37;59.05
82035;BME280;71599;49.892;18.914;2023-08-31T17:04:13;98390.34;;;18.34;59.74
82035;BME280;71599;49.892;18.914;2023-08-31T17:09:14;98395.78;;;18.37;60.06
82035;BME280;71599;49.892;18.914;2023-08-31T17:14:15;98403.13;;;18.24;60.17
82035;BME280;71599;49.892;18.914;2023-08-31T17:19:17;98406.50;;;18.08;60.57
82035;BME280;71599;49.892;18.914;2023-08-31T17:24:19;98402.34;;;17.97;60.75
82035;BME280;71599;49.892;18.914;2023-08-31T17:29:20;98408.84;;;17.83;61.19
82035;BME280;71599;49.892;18.914;2023-08-31T17:34:22;98420.59;;;17.64;62.06
82035;BME280;71599;49.892;18.914;2023-08-31T17:39:23;98424.31;;;17.50;62.22
82035;BME280;71599;49.892;18.914;2023-08-31T17:44:24;98411.00;;;17.38;62.13
82035;BME280;71599;49.892;18.914;2023-08-31T17:49:27;98423.78;;;17.25;62.49
82035;BME280;71599;49.892;18.914;2023-08-31T17:54:28;98438.94;;;17.10;62.27
82035;BME280;71599;49.892;18.914;2023-08-31T17:59:29;98450.94;;;16.96;62.98
82035;BME280;71599;49.892;18.914;2023-08-31T18:04:31;98451.47;;;16.80;63.35
82035;BME280;71599;49.892;18.914;2023-08-31T18:09:32;98461.88;;;16.62;63.68
82035;BME280;71599;49.892;18.914;2023-08-31T18:14:34;98456.88;;;16.43;64.52
82035;BME280;71599;49.892;18.914;2023-08-31T18:19:36;98473.13;;;16.30;64.97
82035;BME280;71599;49.892;18.914;2023-08-31T18:24:37;98466.53;;;16.13;65.33
82035;BME280;71599;49.892;18.914;2023-08-31T18:29:38;98477.31;;;15.90;66.25
82035;BME280;71599;49.892;18.914;2023-08-31T18:34:42;98484.47;;;15.80;65.85
82035;BME280;71599;49.892;18.914;2023-08-31T18:39:43;98496.69;;;15.72;65.79
82035;BME280;71599;49.892;18.914;2023-08-31T18:44:44;98497.09;;;15.57;66.51
82035;BME280;71599;49.892;18.914;2023-08-31T18:49:48;98491.28;;;15.44;67.03
82035;BME280;71599;49.892;18.914;2023-08-31T18:54:49;98501.16;;;15.31;67.28
82035;BME280;71599;49.892;18.914;2023-08-31T18:59:50;98514.16;;;15.20;67.52
82035;BME280;71599;49.892;18.914;2023-08-31T19:04:52;98513.78;;;15.07;67.44
82035;BME280;71599;49.892;18.914;2023-08-31T19:09:53;98505.91;;;14.98;67.96
82035;BME280;71599;49.892;18.914;2023-08-31T19:14:54;98524.00;;;14.89;68.21
82035;BME280;71599;49.892;18.914;2023-08-31T19:19:56;98521.63;;;14.84;68.33
82035;BME280;71599;49.892;18.914;2023-08-31T19:24:58;98520.88;;;14.69;68.76
82035;BME280;71599;49.892;18.914;2023-08-31T19:29:59;98526.34;;;14.66;68.34
82035;BME280;71599;49.892;18.914;2023-08-31T19:35:02;98527.91;;;14.59;68.77
82035;BME280;71599;49.892;18.914;2023-08-31T19:40:04;98529.44;;;14.53;68.89
82035;BME280;71599;49.892;18.914;2023-08-31T19:45:06;98528.66;;;14.53;69.23
82035;BME280;71599;49.892;18.914;2023-08-31T19:50:09;98531.03;;;14.51;69.13
82035;BME280;71599;49.892;18.914;2023-08-31T19:55:10;98531.81;;;14.48;69.56
82035;BME280;71599;49.892;18.914;2023-08-31T20:00:12;98532.22;;;14.46;69.65
82035;BME280;71599;49.892;18.914;2023-08-31T20:05:15;98544.78;;;14.40;70.30
82035;BME280;71599;49.892;18.914;2023-08-31T20:10:18;98547.50;;;14.33;70.53
82035;BME280;71599;49.892;18.914;2023-08-31T20:15:19;98544.34;;;14.20;71.38
82035;BME280;71599;49.892;18.914;2023-08-31T20:20:22;98545.88;;;14.18;71.81
82035;BME280;71599;49.892;18.914;2023-08-31T20:25:22;98558.81;;;14.10;73.34
82035;BME280;71599;49.892;18.914;2023-08-31T20:30:24;98559.97;;;14.06;73.09
82035;BME280;71599;49.892;18.914;2023-08-31T20:35:26;98559.97;;;14.02;73.04
82035;BME280;71599;49.892;18.914;2023-08-31T20:40:27;98564.31;;;14.03;72.87
82035;BME280;71599;49.892;18.914;2023-08-31T20:45:28;98566.25;;;13.99;73.04
82035;BME280;71599;49.892;18.914;2023-08-31T20:50:31;98561.53;;;13.96;73.38
82035;BME280;71599;49.892;18.914;2023-08-31T20:55:32;98561.50;;;13.93;73.29
82035;BME280;71599;49.892;18.914;2023-08-31T21:00:33;98571.28;;;13.83;73.69
82035;BME280;71599;49.892;18.914;2023-08-31T21:05:35;98574.44;;;13.85;73.23
82035;BME280;71599;49.892;18.914;2023-08-31T21:10:36;98566.13;;;13.74;73.62
82035;BME280;71599;49.892;18.914;2023-08-31T21:15:37;98580.59;;;13.64;74.28
82035;BME280;71599;49.892;18.914;2023-08-31T21:20:39;98578.28;;;13.66;73.39
82035;BME280;71599;49.892;18.914;2023-08-31T21:25:40;98590.00;;;13.60;73.03
82035;BME280;71599;49.892;18.914;2023-08-31T21:30:42;98597.88;;;13.61;72.68
82035;BME280;71599;49.892;18.914;2023-08-31T21:35:44;98604.47;;;13.53;72.59
82035;BME280;71599;49.892;18.914;2023-08-31T21:40:45;98602.44;;;13.50;72.29
82035;BME280;71599;49.892;18.914;2023-08-31T21:45:46;98609.47;;;13.44;72.21
82035;BME280;71599;49.892;18.914;2023-08-31T21:50:49;98609.72;;;13.25;72.83
82035;BME280;71599;49.892;18.914;2023-08-31T21:55:50;98619.84;;;13.14;73.41
82035;BME280;71599;49.892;18.914;2023-08-31T22:00:51;98631.59;;;13.11;73.16
82035;BME280;71599;49.892;18.914;2023-08-31T22:05:54;98631.16;;;13.05;72.96
82035;BME280;71599;49.892;18.914;2023-08-31T22:10:55;98639.72;;;13.00;73.21
82035;BME280;71599;49.892;18.914;2023-08-31T22:15:56;98624.38;;;12.95;73.70
82035;BME280;71599;49.892;18.914;2023-08-31T22:20:59;98640.06;;;12.95;74.00
82035;BME280;71599;49.892;18.914;2023-08-31T22:26:00;98649.41;;;12.90;73.73
82035;BME280;71599;49.892;18.914;2023-08-31T22:31:02;98648.63;;;12.90;74.20
82035;BME280;71599;49.892;18.914;2023-08-31T22:36:05;98658.88;;;12.93;73.98
82035;BME280;71599;49.892;18.914;2023-08-31T22:41:06;98642.72;;;12.84;74.83
82035;BME280;71599;49.892;18.914;2023-08-31T22:46:07;98650.50;;;12.79;74.28
82035;BME280;71599;49.892;18.914;2023-08-31T22:51:10;98651.28;;;12.79;73.54
82035;BME280;71599;49.892;18.914;2023-08-31T22:56:11;98645.69;;;12.69;73.94
82035;BME280;71599;49.892;18.914;2023-08-31T23:01:12;98659.41;;;12.69;73.91
82035;BME280;71599;49.892;18.914;2023-08-31T23:06:14;98651.09;;;12.61;74.24
82035;BME280;71599;49.892;18.914;2023-08-31T23:11:15;98654.91;;;12.53;74.37
82035;BME280;71599;49.892;18.914;2023-08-31T23:16:16;98666.25;;;12.52;74.17
82035;BME280;71599;49.892;18.914;2023-08-31T23:21:18;98663.84;;;12.47;74.14
82035;BME280;71599;49.892;18.914;2023-08-31T23:26:19;98648.78;;;12.34;74.07
82035;BME280;71599;49.892;18.914;2023-08-31T23:31:20;98660.41;;;12.23;74.17
82035;BME280;71599;49.892;18.914;2023-08-31T23:36:23;98660.75;;;12.18;74.22
82035;BME280;71599;49.892;18.914;2023-08-31T23:41:24;98657.50;;;12.09;74.62
82035;BME280;71599;49.892;18.914;2023-08-31T23:46:24;98664.09;;;12.05;74.32
82035;BME280;71599;49.892;18.914;2023-08-31T23:51:27;98668.31;;;11.99;74.73
82035;BME280;71599;49.892;18.914;2023-08-31T23:56:28;98668.53;;;11.87;74.42
